Adams Run, South Carolina
Current Conditions -  °F | °C
As of 9:35 AM on Friday 28 Nov 2014 (Local Time) from KJZI Reporting Station
Clear Clear  
Wind Chill: 36°   Ceiling: Unl
Heat Index: 43°   Visibility: 10mi
Dew Point: 30°   Wind: 13mph
Humidity: 61%   Direction: 10°N
Pressure: 30.39"   Gusts: NA
Location:  32.72°N, 80.35°W
Report Text: KJZI 281435Z AUTO 01011KT 030V360 10SM CLR 06/M01 A3039 RMK A02 P000
Loading
Personal Weather Stations






























Interactive Weather Map New forecast layout! Learn more

10-Day Weather Forecast

Advertisements
Track Severe Weather on mobile